Danville, New Hampshire
Current Conditions -  °F | °C
As of 4:54 PM on Monday 24 Nov 2014 (Local Time) from KLWM Reporting Station
Overcast Overcast  
Wind Chill: 64°   Ceiling: 2200
Heat Index: 64°   Visibility: 10mi
Dew Point: 59°   Wind: 10mph
Humidity: 84%   Direction: 190°S
Pressure: 29.57"   Gusts: 20mph
Location:  42.91°N, 71.12°W
Report Text: KLWM 242154Z 19009G17KT 10SM BKN022 OVC030 18/15 A2957 RMK AO2 SLP013 T01780150
Loading
Personal Weather Stations






























Interactive Weather Map New forecast layout! Learn more

10-Day Weather Forecast

Advertisements
Track Severe Weather on mobile